Time,TemperatureF,DewpointF,PressureIn,WindDirection,WindDirectionDegrees,WindSpeedMPH,WindSpeedGustMPH,Humidity,HourlyPrecipIn,Conditions,Clouds,dailyrainin,SoftwareType,DateUTC
2013-05-16 00:09:00,61.5,44.0,25.18,West,281,1.0,1.0,53,0.00,,,0.00,weatherlink.com 1.10,2013-05-16 06:09:00,
2013-05-16 00:24:00,62.0,44.0,25.18,NNE,22,2.0,4.0,53,0.00,,,0.00,weatherlink.com 1.10,2013-05-16 06:24:00,
2013-05-16 00:39:00,61.2,45.0,25.17,NNE,29,4.0,8.0,55,0.00,,,0.00,weatherlink.com 1.10,2013-05-16 06:39:00,
2013-05-16 00:54:00,60.8,45.0,25.17,West,267,3.0,3.0,56,0.00,,,0.00,weatherlink.com 1.10,2013-05-16 06:54:00,
2013-05-16 01:09:00,61.8,45.0,25.18,NW,321,2.0,12.0,54,0.00,,,0.00,weatherlink.com 1.10,2013-05-16 07:09:00,
2013-05-16 01:24:00,61.1,45.0,25.17,NNE,28,5.0,7.0,55,0.00,,,0.00,weatherlink.com 1.10,2013-05-16 07:24:00,
2013-05-16 01:39:00,59.7,45.0,25.17,NE,41,3.0,6.0,58,0.00,,,0.00,weatherlink.com 1.10,2013-05-16 07:39:00,
2013-05-16 01:54:00,59.0,45.0,25.17,North,9,1.0,3.0,60,0.00,,,0.00,weatherlink.com 1.10,2013-05-16 07:54:00,
2013-05-16 02:09:00,58.6,44.0,25.16,NE,51,1.0,4.0,58,0.00,,,0.00,weatherlink.com 1.10,2013-05-16 08:09:00,
2013-05-16 02:24:00,58.2,42.0,25.16,NE,40,1.0,3.0,55,0.00,,,0.00,weatherlink.com 1.10,2013-05-16 08:24:00,
2013-05-16 02:39:00,57.9,41.0,25.16,NE,37,1.0,2.0,54,0.00,,,0.00,weatherlink.com 1.10,2013-05-16 08:39:00,
2013-05-16 02:54:00,57.7,41.0,25.16,NNW,332,2.0,3.0,54,0.00,,,0.00,weatherlink.com 1.10,2013-05-16 08:54:00,
2013-05-16 03:09:00,57.5,42.0,25.16,NNW,340,0.0,2.0,56,0.00,,,0.00,weatherlink.com 1.10,2013-05-16 09:09:00,
2013-05-16 03:24:00,56.7,41.0,25.15,NNW,340,0.0,1.0,57,0.00,,,0.00,weatherlink.com 1.10,2013-05-16 09:24:00,
2013-05-16 03:39:00,57.4,42.0,25.15,WSW,252,0.0,1.0,56,0.00,,,0.00,weatherlink.com 1.10,2013-05-16 09:39:00,
2013-05-16 03:54:00,56.9,42.0,25.15,WSW,253,0.0,1.0,58,0.00,,,0.00,weatherlink.com 1.10,2013-05-16 09:54:00,
2013-05-16 04:09:00,56.4,42.0,25.15,North,359,2.0,2.0,60,0.00,,,0.00,weatherlink.com 1.10,2013-05-16 10:09:00,
2013-05-16 04:24:00,55.2,43.0,25.15,NNE,13,1.0,2.0,64,0.00,,,0.00,weatherlink.com 1.10,2013-05-16 10:24:00,
2013-05-16 04:39:00,55.5,42.0,25.15,NW,322,1.0,3.0,62,0.00,,,0.00,weatherlink.com 1.10,2013-05-16 10:39:00,
2013-05-16 04:54:00,55.5,44.0,25.15,WNW,283,0.0,4.0,65,0.00,,,0.00,weatherlink.com 1.10,2013-05-16 10:54:00,
2013-05-16 05:09:00,55.8,43.0,25.14,NW,321,2.0,4.0,63,0.00,,,0.00,weatherlink.com 1.10,2013-05-16 11:09:00,
2013-05-16 05:24:00,55.6,44.0,25.14,NW,312,1.0,2.0,65,0.00,,,0.00,weatherlink.com 1.10,2013-05-16 11:24:00,
2013-05-16 05:39:00,54.7,44.0,25.14,NNE,20,0.0,2.0,67,0.00,,,0.00,weatherlink.com 1.10,2013-05-16 11:39:00,
2013-05-16 05:54:00,54.5,44.0,25.13,NNE,20,0.0,1.0,67,0.00,,,0.00,weatherlink.com 1.10,2013-05-16 11:54:00,
2013-05-16 06:09:00,54.6,43.0,25.12,ENE,69,0.0,1.0,64,0.00,,,0.00,weatherlink.com 1.10,2013-05-16 12:09:00,
2013-05-16 06:24:00,54.9,42.0,25.12,ESE,117,0.0,2.0,63,0.00,,,0.00,weatherlink.com 1.10,2013-05-16 12:24:00,
2013-05-16 06:39:00,55.5,42.0,25.12,ESE,121,1.0,3.0,62,0.00,,,0.00,weatherlink.com 1.10,2013-05-16 12:39:00,
2013-05-16 06:54:00,55.7,41.0,25.12,ESE,114,1.0,3.0,59,0.00,,,0.00,weatherlink.com 1.10,2013-05-16 12:54:00,
2013-05-16 07:09:00,58.1,41.0,25.13,ESE,120,0.0,1.0,54,0.00,,,0.00,weatherlink.com 1.10,2013-05-16 13:09:00,
2013-05-16 07:24:00,58.7,41.0,25.12,ESE,111,3.0,5.0,52,0.00,,,0.00,weatherlink.com 1.10,2013-05-16 13:24:00,
2013-05-16 07:39:00,60.2,41.0,25.12,SW,218,2.0,3.0,50,0.00,,,0.00,weatherlink.com 1.10,2013-05-16 13:39:00,
2013-05-16 07:54:00,60.6,41.0,25.12,SW,215,6.0,8.0,48,0.00,,,0.00,weatherlink.com 1.10,2013-05-16 13:54:00,
2013-05-16 08:09:00,63.3,43.0,25.12,WSW,239,5.0,6.0,48,0.00,,,0.00,weatherlink.com 1.10,2013-05-16 14:09:00,
2013-05-16 08:24:00,65.2,44.0,25.12,ESE,122,2.0,6.0,47,0.00,,,0.00,weatherlink.com 1.10,2013-05-16 14:24:00,
2013-05-16 08:39:00,66.2,45.0,25.13,SSE,152,1.0,6.0,46,0.00,,,0.00,weatherlink.com 1.10,2013-05-16 14:39:00,
2013-05-16 08:55:00,68.7,45.0,25.13,West,270,1.0,7.0,43,0.00,,,0.00,weatherlink.com 1.10,2013-05-16 14:55:00,
2013-05-16 09:10:00,70.5,46.0,25.13,SW,225,6.0,8.0,41,0.00,,,0.00,weatherlink.com 1.10,2013-05-16 15:10:00,
2013-05-16 09:25:00,69.4,46.0,25.13,SW,232,5.0,10.0,43,0.00,,,0.00,weatherlink.com 1.10,2013-05-16 15:25:00,
2013-05-16 09:40:00,68.3,47.0,25.13,ESE,106,4.0,9.0,46,0.00,,,0.00,weatherlink.com 1.10,2013-05-16 15:40:00,
2013-05-16 09:55:00,68.4,46.0,25.13,SW,225,5.0,9.0,45,0.00,,,0.00,weatherlink.com 1.10,2013-05-16 15:55:00,
2013-05-16 10:10:00,69.0,47.0,25.13,WNW,293,3.0,8.0,45,0.00,,,0.00,weatherlink.com 1.10,2013-05-16 16:10:00,
2013-05-16 10:25:00,68.7,46.0,25.13,West,269,8.0,10.0,45,0.00,,,0.00,weatherlink.com 1.10,2013-05-16 16:25:00,
2013-05-16 10:40:00,68.4,48.0,25.13,SW,228,3.0,10.0,48,0.00,,,0.00,weatherlink.com 1.10,2013-05-16 16:40:00,
2013-05-16 10:55:00,67.7,44.0,25.13,West,276,7.0,15.0,42,0.00,,,0.00,weatherlink.com 1.10,2013-05-16 16:55:00,
2013-05-16 11:10:00,67.9,48.0,25.13,WSW,252,9.0,14.0,49,0.00,,,0.00,weatherlink.com 1.10,2013-05-16 17:10:00,
2013-05-16 11:25:00,68.5,48.0,25.13,SW,226,8.0,17.0,49,0.00,,,0.00,weatherlink.com 1.10,2013-05-16 17:25:00,
2013-05-16 11:40:00,69.6,47.0,25.12,West,263,12.0,15.0,45,0.00,,,0.00,weatherlink.com 1.10,2013-05-16 17:40:00,
2013-05-16 11:55:00,72.7,43.0,25.12,SW,232,5.0,15.0,34,0.00,,,0.00,weatherlink.com 1.10,2013-05-16 17:55:00,
2013-05-16 12:10:00,75.5,43.0,25.11,WSW,255,3.0,10.0,31,0.00,,,0.00,weatherlink.com 1.10,2013-05-16 18:10:00,
2013-05-16 12:25:00,74.3,43.0,25.11,WNW,301,6.0,8.0,32,0.00,,,0.00,weatherlink.com 1.10,2013-05-16 18:25:00,
2013-05-16 12:40:00,74.0,43.0,25.11,NNW,335,3.0,7.0,33,0.00,,,0.00,weatherlink.com 1.10,2013-05-16 18:40:00,
2013-05-16 12:55:00,75.8,43.0,25.10,NW,316,1.0,11.0,31,0.00,,,0.00,weatherlink.com 1.10,2013-05-16 18:55:00,
2013-05-16 13:10:00,78.3,43.0,25.09,NNW,329,4.0,9.0,28,0.00,,,0.00,weatherlink.com 1.10,2013-05-16 19:10:00,
2013-05-16 13:25:00,78.8,42.0,25.08,WSW,253,4.0,9.0,27,0.00,,,0.00,weatherlink.com 1.10,2013-05-16 19:25:00,
2013-05-16 13:40:00,78.5,42.0,25.08,West,259,8.0,14.0,27,0.00,,,0.00,weatherlink.com 1.10,2013-05-16 19:40:00,
2013-05-16 13:55:00,78.5,42.0,25.07,West,278,5.0,9.0,27,0.00,,,0.00,weatherlink.com 1.10,2013-05-16 19:55:00,
2013-05-16 14:10:00,80.2,41.0,25.07,ESE,104,1.0,8.0,25,0.00,,,0.00,weatherlink.com 1.10,2013-05-16 20:10:00,
2013-05-16 14:25:00,79.2,41.0,25.07,SSW,212,0.0,4.0,26,0.00,,,0.00,weatherlink.com 1.10,2013-05-16 20:25:00,
2013-05-16 14:40:00,77.1,42.0,25.09,NW,304,9.0,10.0,28,0.00,,,0.00,weatherlink.com 1.10,2013-05-16 20:40:00,
2013-05-16 14:55:00,59.9,48.0,25.11,NNW,335,32.0,48.0,66,0.01,,,0.01,weatherlink.com 1.10,2013-05-16 20:55:00,
2013-05-16 15:10:00,58.8,47.0,25.12,NNE,12,18.0,29.0,65,0.01,,,0.01,weatherlink.com 1.10,2013-05-16 21:10:00,
2013-05-16 15:25:00,64.0,41.0,25.12,NW,307,9.0,28.0,44,0.01,,,0.01,weatherlink.com 1.10,2013-05-16 21:25:00,
2013-05-16 15:40:00,63.6,46.0,25.11,NNE,20,3.0,10.0,54,0.02,,,0.02,weatherlink.com 1.10,2013-05-16 21:40:00,
2013-05-16 15:55:00,63.1,48.0,25.09,ENE,77,2.0,4.0,58,0.01,,,0.02,weatherlink.com 1.10,2013-05-16 21:55:00,
2013-05-16 16:10:00,63.4,46.0,25.08,ESE,122,3.0,9.0,53,0.01,,,0.02,weatherlink.com 1.10,2013-05-16 22:10:00,
2013-05-16 16:25:00,64.5,46.0,25.09,ESE,122,1.0,3.0,52,0.01,,,0.02,weatherlink.com 1.10,2013-05-16 22:25:00,
2013-05-16 16:40:00,64.0,49.0,25.08,ESE,103,1.0,2.0,59,0.00,,,0.02,weatherlink.com 1.10,2013-05-16 22:40:00,
2013-05-16 16:55:00,64.4,48.0,25.06,SE,137,4.0,7.0,55,0.00,,,0.02,weatherlink.com 1.10,2013-05-16 22:55:00,
2013-05-16 17:10:00,66.5,47.0,25.06,ESE,115,4.0,9.0,49,0.00,,,0.02,weatherlink.com 1.10,2013-05-16 23:10:00,
2013-05-16 17:25:00,68.8,50.0,25.06,ESE,115,2.0,9.0,51,0.00,,,0.02,weatherlink.com 1.10,2013-05-16 23:25:00,
2013-05-16 17:40:00,70.9,48.0,25.06,NE,46,4.0,6.0,45,0.00,,,0.02,weatherlink.com 1.10,2013-05-16 23:40:00,
2013-05-16 17:55:00,72.6,46.0,25.05,ESE,117,5.0,6.0,39,0.00,,,0.02,weatherlink.com 1.10,2013-05-16 23:55:00,
2013-05-16 18:10:00,73.4,46.0,25.05,ESE,108,1.0,6.0,38,0.00,,,0.02,weatherlink.com 1.10,2013-05-17 00:10:00,
2013-05-16 18:25:00,73.0,46.0,25.05,SE,124,1.0,3.0,38,0.00,,,0.02,weatherlink.com 1.10,2013-05-17 00:25:00,
2013-05-16 18:40:00,70.9,48.0,25.05,NE,41,3.0,3.0,45,0.00,,,0.02,weatherlink.com 1.10,2013-05-17 00:40:00,
2013-05-16 18:55:00,68.9,50.0,25.06,ESE,121,1.0,8.0,51,0.00,,,0.02,weatherlink.com 1.10,2013-05-17 00:55:00,
2013-05-16 19:10:00,68.9,49.0,25.06,NE,34,4.0,8.0,50,0.00,,,0.02,weatherlink.com 1.10,2013-05-17 01:10:00,
2013-05-16 19:25:00,68.1,48.0,25.07,SE,129,1.0,1.0,49,0.00,,,0.02,weatherlink.com 1.10,2013-05-17 01:25:00,
2013-05-16 19:40:00,69.0,40.0,25.10,WSW,240,14.0,20.0,35,0.00,,,0.02,weatherlink.com 1.10,2013-05-17 01:40:00,
2013-05-16 19:55:00,66.6,46.0,25.12,WSW,240,16.0,25.0,47,0.00,,,0.02,weatherlink.com 1.10,2013-05-17 01:55:00,
2013-05-16 20:10:00,61.1,50.0,25.13,South,187,9.0,13.0,67,0.02,,,0.04,weatherlink.com 1.10,2013-05-17 02:10:00,
2013-05-16 20:26:00,61.2,49.0,25.13,SW,233,9.0,17.0,65,0.02,,,0.04,weatherlink.com 1.10,2013-05-17 02:26:00,
2013-05-16 20:41:00,62.3,47.0,25.14,WSW,238,8.0,14.0,58,0.02,,,0.04,weatherlink.com 1.10,2013-05-17 02:41:00,
2013-05-16 20:56:00,62.5,49.0,25.11,SE,134,5.0,16.0,61,0.03,,,0.05,weatherlink.com 1.10,2013-05-17 02:56:00,
2013-05-16 21:11:00,62.4,48.0,25.11,NE,46,8.0,10.0,60,0.01,,,0.05,weatherlink.com 1.10,2013-05-17 03:11:00,
2013-05-16 21:26:00,60.8,50.0,25.11,NE,53,2.0,3.0,68,0.01,,,0.05,weatherlink.com 1.10,2013-05-17 03:26:00,
2013-05-16 21:41:00,61.0,50.0,25.11,SE,124,4.0,4.0,67,0.01,,,0.05,weatherlink.com 1.10,2013-05-17 03:41:00,
2013-05-16 21:56:00,62.1,48.0,25.11,SE,145,3.0,6.0,61,0.00,,,0.05,weatherlink.com 1.10,2013-05-17 03:56:00,
2013-05-16 22:11:00,61.5,50.0,25.12,SW,214,6.0,13.0,65,0.00,,,0.00,weatherlink.com 1.10,2013-05-17 04:11:00,
2013-05-16 22:26:00,60.7,50.0,25.12,SW,214,2.0,6.0,67,0.00,,,0.00,weatherlink.com 1.10,2013-05-17 04:26:00,
2013-05-16 22:41:00,60.1,49.0,25.12,SSE,163,4.0,6.0,68,0.00,,,0.00,weatherlink.com 1.10,2013-05-17 04:41:00,
2013-05-16 22:56:00,59.4,50.0,25.12,SSW,211,2.0,8.0,70,0.00,,,0.00,weatherlink.com 1.10,2013-05-17 04:56:00,
2013-05-16 23:11:00,58.8,49.0,25.12,ESE,120,0.0,5.0,71,0.00,,,0.00,weatherlink.com 1.10,2013-05-17 05:11:00,
2013-05-16 23:26:00,57.7,49.0,25.13,ESE,115,6.0,8.0,72,0.00,,,0.00,weatherlink.com 1.10,2013-05-17 05:26:00,
2013-05-16 23:41:00,58.1,48.0,25.13,SSE,150,2.0,8.0,69,0.00,,,0.00,weatherlink.com 1.10,2013-05-17 05:41:00,
2013-05-16 23:56:00,57.4,48.0,25.13,SSW,211,4.0,6.0,70,0.00,,,0.00,weatherlink.com 1.10,2013-05-17 05:56:00,